sensor_id;sensor_type;location;lat;lon;timestamp;temperature;humidity
13074;DHT22;6603;47.066;15.396;2023-05-19T00:01:12;11.40;95.30
13074;DHT22;6603;47.066;15.396;2023-05-19T00:03:52;11.30;74.70
13074;DHT22;6603;47.066;15.396;2023-05-19T00:06:26;11.30;59.60
13074;DHT22;6603;47.066;15.396;2023-05-19T00:09:04;11.20;68.10
13074;DHT22;6603;47.066;15.396;2023-05-19T00:11:30;11.20;49.40
13074;DHT22;6603;47.066;15.396;2023-05-19T00:13:58;11.20;13.50
13074;DHT22;6603;47.066;15.396;2023-05-19T00:16:26;11.20;3.20
13074;DHT22;6603;47.066;15.396;2023-05-19T00:18:52;11.30;32.80
13074;DHT22;6603;47.066;15.396;2023-05-19T00:21:19;11.20;43.80
13074;DHT22;6603;47.066;15.396;2023-05-19T00:23:45;11.30;90.80
13074;DHT22;6603;47.066;15.396;2023-05-19T00:26:11;11.30;35.00
13074;DHT22;6603;47.066;15.396;2023-05-19T00:28:37;11.30;1.00
13074;DHT22;6603;47.066;15.396;2023-05-19T00:31:06;11.30;1.00
13074;DHT22;6603;47.066;15.396;2023-05-19T00:33:32;11.30;11.80
13074;DHT22;6603;47.066;15.396;2023-05-19T00:36:02;11.30;99.90
13074;DHT22;6603;47.066;15.396;2023-05-19T00:38:33;11.20;95.00
13074;DHT22;6603;47.066;15.396;2023-05-19T00:41:00;11.10;99.90
13074;DHT22;6603;47.066;15.396;2023-05-19T00:43:26;11.00;99.90
13074;DHT22;6603;47.066;15.396;2023-05-19T00:45:52;10.90;99.90
13074;DHT22;6603;47.066;15.396;2023-05-19T00:48:18;10.90;99.90
13074;DHT22;6603;47.066;15.396;2023-05-19T00:50:44;11.10;99.90
13074;DHT22;6603;47.066;15.396;2023-05-19T00:53:12;11.00;99.90
13074;DHT22;6603;47.066;15.396;2023-05-19T00:55:39;11.00;99.90
13074;DHT22;6603;47.066;15.396;2023-05-19T00:58:06;10.90;99.90
13074;DHT22;6603;47.066;15.396;2023-05-19T01:00:34;11.00;99.90
13074;DHT22;6603;47.066;15.396;2023-05-19T01:03:02;11.00;99.90
13074;DHT22;6603;47.066;15.396;2023-05-19T01:05:40;10.90;99.90
13074;DHT22;6603;47.066;15.396;2023-05-19T01:08:07;10.70;99.90
13074;DHT22;6603;47.066;15.396;2023-05-19T01:10:33;10.70;99.90
13074;DHT22;6603;47.066;15.396;2023-05-19T01:13:04;10.60;99.90
13074;DHT22;6603;47.066;15.396;2023-05-19T01:15:35;10.60;99.90
13074;DHT22;6603;47.066;15.396;2023-05-19T01:18:08;10.50;99.90
13074;DHT22;6603;47.066;15.396;2023-05-19T01:20:47;10.60;99.90
13074;DHT22;6603;47.066;15.396;2023-05-19T01:31:29;10.70;99.90
13074;DHT22;6603;47.066;15.396;2023-05-19T01:33:56;10.80;99.90
13074;DHT22;6603;47.066;15.396;2023-05-19T01:36:25;10.80;99.90
13074;DHT22;6603;47.066;15.396;2023-05-19T01:38:54;10.80;99.90
13074;DHT22;6603;47.066;15.396;2023-05-19T01:41:21;10.70;99.90
13074;DHT22;6603;47.066;15.396;2023-05-19T01:43:48;10.70;99.90
13074;DHT22;6603;47.066;15.396;2023-05-19T01:46:16;10.60;99.90
13074;DHT22;6603;47.066;15.396;2023-05-19T01:48:44;10.60;99.90
13074;DHT22;6603;47.066;15.396;2023-05-19T01:51:10;10.60;99.90
13074;DHT22;6603;47.066;15.396;2023-05-19T01:53:36;10.80;99.90
13074;DHT22;6603;47.066;15.396;2023-05-19T01:56:03;10.70;99.90
13074;DHT22;6603;47.066;15.396;2023-05-19T01:58:46;10.60;99.90
13074;DHT22;6603;47.066;15.396;2023-05-19T02:04:28;10.60;99.90
13074;DHT22;6603;47.066;15.396;2023-05-19T02:07:05;10.60;99.90
13074;DHT22;6603;47.066;15.396;2023-05-19T02:09:45;10.60;99.90
13074;DHT22;6603;47.066;15.396;2023-05-19T02:12:19;10.80;99.90
13074;DHT22;6603;47.066;15.396;2023-05-19T02:15:16;10.90;99.90
13074;DHT22;6603;47.066;15.396;2023-05-19T02:17:44;11.00;99.90
13074;DHT22;6603;47.066;15.396;2023-05-19T02:20:16;10.90;99.90
13074;DHT22;6603;47.066;15.396;2023-05-19T02:22:44;10.80;99.90
13074;DHT22;6603;47.066;15.396;2023-05-19T02:25:10;10.70;99.90
13074;DHT22;6603;47.066;15.396;2023-05-19T02:27:37;10.70;99.90
13074;DHT22;6603;47.066;15.396;2023-05-19T02:30:05;10.70;99.90
13074;DHT22;6603;47.066;15.396;2023-05-19T02:32:34;10.70;99.90
13074;DHT22;6603;47.066;15.396;2023-05-19T02:35:01;10.80;99.90
13074;DHT22;6603;47.066;15.396;2023-05-19T02:37:28;10.70;99.90
13074;DHT22;6603;47.066;15.396;2023-05-19T02:39:55;10.80;99.90
13074;DHT22;6603;47.066;15.396;2023-05-19T02:42:21;10.90;99.90
13074;DHT22;6603;47.066;15.396;2023-05-19T02:44:48;10.90;99.90
13074;DHT22;6603;47.066;15.396;2023-05-19T02:47:14;10.80;99.90
13074;DHT22;6603;47.066;15.396;2023-05-19T02:49:40;10.80;99.90
13074;DHT22;6603;47.066;15.396;2023-05-19T02:52:07;10.80;99.90
13074;DHT22;6603;47.066;15.396;2023-05-19T02:54:34;10.80;99.90
13074;DHT22;6603;47.066;15.396;2023-05-19T02:57:00;10.90;99.90
13074;DHT22;6603;47.066;15.396;2023-05-19T02:59:27;10.90;99.90
13074;DHT22;6603;47.066;15.396;2023-05-19T03:01:59;11.00;99.90
13074;DHT22;6603;47.066;15.396;2023-05-19T03:04:26;10.90;99.90
13074;DHT22;6603;47.066;15.396;2023-05-19T03:06:52;10.90;99.90
13074;DHT22;6603;47.066;15.396;2023-05-19T03:09:19;11.00;99.90
13074;DHT22;6603;47.066;15.396;2023-05-19T03:11:45;11.00;99.90
13074;DHT22;6603;47.066;15.396;2023-05-19T03:14:11;11.00;99.90
13074;DHT22;6603;47.066;15.396;2023-05-19T03:16:38;10.80;99.90
13074;DHT22;6603;47.066;15.396;2023-05-19T03:19:06;10.80;99.90
13074;DHT22;6603;47.066;15.396;2023-05-19T03:21:33;10.80;99.90
13074;DHT22;6603;47.066;15.396;2023-05-19T03:24:00;10.80;99.90
13074;DHT22;6603;47.066;15.396;2023-05-19T03:26:26;10.80;99.90
13074;DHT22;6603;47.066;15.396;2023-05-19T03:28:52;10.80;99.90
13074;DHT22;6603;47.066;15.396;2023-05-19T03:31:18;10.90;99.90
13074;DHT22;6603;47.066;15.396;2023-05-19T03:33:44;10.80;99.90
13074;DHT22;6603;47.066;15.396;2023-05-19T03:36:10;10.80;99.90
13074;DHT22;6603;47.066;15.396;2023-05-19T03:38:37;10.90;99.90
13074;DHT22;6603;47.066;15.396;2023-05-19T03:41:03;10.80;99.90
13074;DHT22;6603;47.066;15.396;2023-05-19T03:43:29;10.90;99.90
13074;DHT22;6603;47.066;15.396;2023-05-19T03:45:55;10.90;99.90
13074;DHT22;6603;47.066;15.396;2023-05-19T03:48:21;10.90;99.90
13074;DHT22;6603;47.066;15.396;2023-05-19T03:50:47;10.80;99.90
13074;DHT22;6603;47.066;15.396;2023-05-19T03:53:14;10.80;99.90
13074;DHT22;6603;47.066;15.396;2023-05-19T03:55:40;10.90;99.90
13074;DHT22;6603;47.066;15.396;2023-05-19T03:58:06;10.90;99.90
13074;DHT22;6603;47.066;15.396;2023-05-19T04:00:32;10.90;99.90
13074;DHT22;6603;47.066;15.396;2023-05-19T04:02:58;11.00;99.90
13074;DHT22;6603;47.066;15.396;2023-05-19T04:05:24;11.00;99.90
13074;DHT22;6603;47.066;15.396;2023-05-19T04:07:50;11.00;99.90
13074;DHT22;6603;47.066;15.396;2023-05-19T04:10:16;11.00;99.90
13074;DHT22;6603;47.066;15.396;2023-05-19T04:12:43;10.90;99.90
13074;DHT22;6603;47.066;15.396;2023-05-19T04:15:09;11.00;99.90
13074;DHT22;6603;47.066;15.396;2023-05-19T04:17:37;11.10;99.90
13074;DHT22;6603;47.066;15.396;2023-05-19T04:20:03;11.00;99.90
13074;DHT22;6603;47.066;15.396;2023-05-19T04:22:31;11.00;99.90
13074;DHT22;6603;47.066;15.396;2023-05-19T04:24:57;11.10;99.90
13074;DHT22;6603;47.066;15.396;2023-05-19T04:27:23;11.10;99.90
13074;DHT22;6603;47.066;15.396;2023-05-19T04:29:50;11.20;99.90
13074;DHT22;6603;47.066;15.396;2023-05-19T04:32:17;11.20;99.90
13074;DHT22;6603;47.066;15.396;2023-05-19T04:34:43;11.20;99.90
13074;DHT22;6603;47.066;15.396;2023-05-19T04:37:12;11.30;99.90
13074;DHT22;6603;47.066;15.396;2023-05-19T04:39:44;11.30;99.90
13074;DHT22;6603;47.066;15.396;2023-05-19T04:42:11;11.40;99.90
13074;DHT22;6603;47.066;15.396;2023-05-19T04:44:38;11.30;99.90
13074;DHT22;6603;47.066;15.396;2023-05-19T04:47:07;11.30;99.90
13074;DHT22;6603;47.066;15.396;2023-05-19T04:49:36;11.30;99.90
13074;DHT22;6603;47.066;15.396;2023-05-19T04:52:09;11.40;99.90
13074;DHT22;6603;47.066;15.396;2023-05-19T04:54:36;11.30;99.90
13074;DHT22;6603;47.066;15.396;2023-05-19T04:57:03;11.30;99.90
13074;DHT22;6603;47.066;15.396;2023-05-19T04:59:29;11.30;99.90
13074;DHT22;6603;47.066;15.396;2023-05-19T05:01:55;11.40;99.90
13074;DHT22;6603;47.066;15.396;2023-05-19T05:04:22;11.50;99.90
13074;DHT22;6603;47.066;15.396;2023-05-19T05:06:48;11.50;99.90
13074;DHT22;6603;47.066;15.396;2023-05-19T05:09:16;11.50;99.90
13074;DHT22;6603;47.066;15.396;2023-05-19T05:11:42;11.50;96.80
13074;DHT22;6603;47.066;15.396;2023-05-19T05:14:10;11.50;92.90
13074;DHT22;6603;47.066;15.396;2023-05-19T05:16:37;11.50;99.90
13074;DHT22;6603;47.066;15.396;2023-05-19T05:19:03;11.50;99.90
13074;DHT22;6603;47.066;15.396;2023-05-19T05:21:29;11.50;97.30
13074;DHT22;6603;47.066;15.396;2023-05-19T05:23:57;11.60;97.10
13074;DHT22;6603;47.066;15.396;2023-05-19T05:26:29;11.60;95.30
13074;DHT22;6603;47.066;15.396;2023-05-19T05:28:55;11.60;83.90
13074;DHT22;6603;47.066;15.396;2023-05-19T05:31:21;11.60;52.50
13074;DHT22;6603;47.066;15.396;2023-05-19T05:33:47;11.60;85.30
13074;DHT22;6603;47.066;15.396;2023-05-19T05:36:13;11.60;76.60
13074;DHT22;6603;47.066;15.396;2023-05-19T05:38:39;11.70;92.30
13074;DHT22;6603;47.066;15.396;2023-05-19T05:41:05;11.70;78.50
13074;DHT22;6603;47.066;15.396;2023-05-19T05:43:31;11.60;90.20
13074;DHT22;6603;47.066;15.396;2023-05-19T05:45:57;11.70;99.20
13074;DHT22;6603;47.066;15.396;2023-05-19T05:48:23;11.70;70.70
13074;DHT22;6603;47.066;15.396;2023-05-19T05:50:49;11.60;76.80
13074;DHT22;6603;47.066;15.396;2023-05-19T05:56:32;11.70;99.90
13074;DHT22;6603;47.066;15.396;2023-05-19T05:58:59;11.70;99.90
13074;DHT22;6603;47.066;15.396;2023-05-19T06:01:24;11.70;77.70
13074;DHT22;6603;47.066;15.396;2023-05-19T06:03:50;11.70;55.10
13074;DHT22;6603;47.066;15.396;2023-05-19T06:06:16;11.80;68.90
13074;DHT22;6603;47.066;15.396;2023-05-19T06:08:42;11.90;74.00
13074;DHT22;6603;47.066;15.396;2023-05-19T06:11:08;12.00;65.40
13074;DHT22;6603;47.066;15.396;2023-05-19T06:13:37;12.10;25.70
13074;DHT22;6603;47.066;15.396;2023-05-19T06:16:04;12.20;22.50
13074;DHT22;6603;47.066;15.396;2023-05-19T06:18:30;12.20;36.40
13074;DHT22;6603;47.066;15.396;2023-05-19T06:20:57;12.20;50.50
13074;DHT22;6603;47.066;15.396;2023-05-19T06:23:23;12.20;77.30
13074;DHT22;6603;47.066;15.396;2023-05-19T06:25:51;12.20;54.40
13074;DHT22;6603;47.066;15.396;2023-05-19T06:28:17;12.20;35.70
13074;DHT22;6603;47.066;15.396;2023-05-19T06:30:43;12.30;24.40
13074;DHT22;6603;47.066;15.396;2023-05-19T06:33:08;12.30;45.60
13074;DHT22;6603;47.066;15.396;2023-05-19T06:35:34;12.30;24.80
13074;DHT22;6603;47.066;15.396;2023-05-19T06:38:00;12.40;15.30
13074;DHT22;6603;47.066;15.396;2023-05-19T06:40:26;12.40;3.80
13074;DHT22;6603;47.066;15.396;2023-05-19T06:42:51;12.40;1.00
13074;DHT22;6603;47.066;15.396;2023-05-19T06:45:17;12.40;1.00
13074;DHT22;6603;47.066;15.396;2023-05-19T06:47:49;12.50;1.00
13074;DHT22;6603;47.066;15.396;2023-05-19T06:50:15;12.70;1.00
13074;DHT22;6603;47.066;15.396;2023-05-19T06:52:41;12.80;1.00
13074;DHT22;6603;47.066;15.396;2023-05-19T06:55:07;13.00;1.00
13074;DHT22;6603;47.066;15.396;2023-05-19T06:57:33;13.00;1.00
13074;DHT22;6603;47.066;15.396;2023-05-19T06:59:59;13.10;1.00
13074;DHT22;6603;47.066;15.396;2023-05-19T07:02:24;13.10;1.00
13074;DHT22;6603;47.066;15.396;2023-05-19T07:04:50;13.20;1.00
13074;DHT22;6603;47.066;15.396;2023-05-19T07:07:17;13.40;1.00
13074;DHT22;6603;47.066;15.396;2023-05-19T07:09:43;13.50;1.00
13074;DHT22;6603;47.066;15.396;2023-05-19T07:12:08;13.70;1.00
13074;DHT22;6603;47.066;15.396;2023-05-19T07:14:34;13.70;1.00
13074;DHT22;6603;47.066;15.396;2023-05-19T07:17:02;13.70;1.00
13074;DHT22;6603;47.066;15.396;2023-05-19T07:19:27;13.70;1.00
13074;DHT22;6603;47.066;15.396;2023-05-19T07:21:53;13.80;1.00
13074;DHT22;6603;47.066;15.396;2023-05-19T07:24:20;13.80;99.90
13074;DHT22;6603;47.066;15.396;2023-05-19T07:26:46;13.80;99.90
13074;DHT22;6603;47.066;15.396;2023-05-19T07:29:12;13.80;1.00
13074;DHT22;6603;47.066;15.396;2023-05-19T07:31:38;14.00;1.00
13074;DHT22;6603;47.066;15.396;2023-05-19T07:34:03;14.20;1.00
13074;DHT22;6603;47.066;15.396;2023-05-19T07:36:29;14.30;1.00
13074;DHT22;6603;47.066;15.396;2023-05-19T07:38:55;14.50;99.90
13074;DHT22;6603;47.066;15.396;2023-05-19T07:41:21;14.20;99.90
13074;DHT22;6603;47.066;15.396;2023-05-19T07:43:48;14.30;1.00
13074;DHT22;6603;47.066;15.396;2023-05-19T07:46:14;14.40;99.90
13074;DHT22;6603;47.066;15.396;2023-05-19T07:48:40;14.20;99.90
13074;DHT22;6603;47.066;15.396;2023-05-19T07:51:06;14.50;99.90
13074;DHT22;6603;47.066;15.396;2023-05-19T07:53:35;15.00;99.90
13074;DHT22;6603;47.066;15.396;2023-05-19T07:56:02;15.40;1.00
13074;DHT22;6603;47.066;15.396;2023-05-19T07:58:28;15.40;1.00
13074;DHT22;6603;47.066;15.396;2023-05-19T08:00:57;15.40;1.90
13074;DHT22;6603;47.066;15.396;2023-05-19T08:03:24;15.30;1.00
13074;DHT22;6603;47.066;15.396;2023-05-19T08:05:50;15.10;1.00
13074;DHT22;6603;47.066;15.396;2023-05-19T08:08:15;15.00;1.00
13074;DHT22;6603;47.066;15.396;2023-05-19T08:10:42;15.20;1.00
13074;DHT22;6603;47.066;15.396;2023-05-19T08:13:07;15.10;96.50
13074;DHT22;6603;47.066;15.396;2023-05-19T08:15:33;15.20;1.00
13074;DHT22;6603;47.066;15.396;2023-05-19T08:17:59;15.30;99.90
13074;DHT22;6603;47.066;15.396;2023-05-19T08:20:26;14.80;1.00
13074;DHT22;6603;47.066;15.396;2023-05-19T08:22:51;15.00;99.90
13074;DHT22;6603;47.066;15.396;2023-05-19T08:25:17;14.80;26.80
13074;DHT22;6603;47.066;15.396;2023-05-19T08:27:44;14.60;99.90
13074;DHT22;6603;47.066;15.396;2023-05-19T08:30:10;14.90;1.00
13074;DHT22;6603;47.066;15.396;2023-05-19T08:32:36;15.30;1.00
13074;DHT22;6603;47.066;15.396;2023-05-19T08:35:02;15.70;1.00
13074;DHT22;6603;47.066;15.396;2023-05-19T08:37:28;15.80;99.90
13074;DHT22;6603;47.066;15.396;2023-05-19T08:39:54;15.80;1.00
13074;DHT22;6603;47.066;15.396;2023-05-19T08:42:21;15.80;50.60
13074;DHT22;6603;47.066;15.396;2023-05-19T08:44:47;15.80;1.00
13074;DHT22;6603;47.066;15.396;2023-05-19T08:47:13;15.90;1.00
13074;DHT22;6603;47.066;15.396;2023-05-19T08:49:46;15.80;99.90
13074;DHT22;6603;47.066;15.396;2023-05-19T08:53:10;15.80;1.00
13074;DHT22;6603;47.066;15.396;2023-05-19T08:55:34;15.60;99.90
13074;DHT22;6603;47.066;15.396;2023-05-19T08:58:02;15.60;1.00
13074;DHT22;6603;47.066;15.396;2023-05-19T09:00:29;15.40;1.00
13074;DHT22;6603;47.066;15.396;2023-05-19T09:02:55;15.40;3.60
13074;DHT22;6603;47.066;15.396;2023-05-19T09:05:22;15.30;1.00
13074;DHT22;6603;47.066;15.396;2023-05-19T09:07:48;15.40;1.00
13074;DHT22;6603;47.066;15.396;2023-05-19T09:10:14;15.10;1.00
13074;DHT22;6603;47.066;15.396;2023-05-19T09:12:45;15.10;1.00
13074;DHT22;6603;47.066;15.396;2023-05-19T09:15:17;15.30;1.00
13074;DHT22;6603;47.066;15.396;2023-05-19T09:17:45;15.70;1.00
13074;DHT22;6603;47.066;15.396;2023-05-19T09:20:13;16.00;1.00
13074;DHT22;6603;47.066;15.396;2023-05-19T09:22:42;16.30;1.00
13074;DHT22;6603;47.066;15.396;2023-05-19T09:25:24;16.10;1.00
13074;DHT22;6603;47.066;15.396;2023-05-19T09:27:53;16.40;6.20
13074;DHT22;6603;47.066;15.396;2023-05-19T09:30:19;16.70;88.60
13074;DHT22;6603;47.066;15.396;2023-05-19T09:32:46;17.00;1.00
13074;DHT22;6603;47.066;15.396;2023-05-19T09:35:12;17.10;99.90
13074;DHT22;6603;47.066;15.396;2023-05-19T09:37:42;17.30;1.00
13074;DHT22;6603;47.066;15.396;2023-05-19T09:40:08;17.20;1.00
13074;DHT22;6603;47.066;15.396;2023-05-19T09:42:38;17.60;1.00
13074;DHT22;6603;47.066;15.396;2023-05-19T09:45:05;17.90;99.90
13074;DHT22;6603;47.066;15.396;2023-05-19T09:47:35;18.10;99.90
13074;DHT22;6603;47.066;15.396;2023-05-19T09:50:10;18.10;99.90
13074;DHT22;6603;47.066;15.396;2023-05-19T09:52:42;18.20;99.90
13074;DHT22;6603;47.066;15.396;2023-05-19T09:55:12;18.40;1.00
13074;DHT22;6603;47.066;15.396;2023-05-19T09:57:39;17.60;1.00
13074;DHT22;6603;47.066;15.396;2023-05-19T10:00:07;17.80;1.00
13074;DHT22;6603;47.066;15.396;2023-05-19T10:02:43;17.80;1.00
13074;DHT22;6603;47.066;15.396;2023-05-19T10:05:14;18.00;1.00
13074;DHT22;6603;47.066;15.396;2023-05-19T10:07:52;17.90;1.00
13074;DHT22;6603;47.066;15.396;2023-05-19T10:10:19;18.10;1.00
13074;DHT22;6603;47.066;15.396;2023-05-19T10:12:47;18.10;99.90
13074;DHT22;6603;47.066;15.396;2023-05-19T10:15:14;18.20;1.00
13074;DHT22;6603;47.066;15.396;2023-05-19T10:17:42;18.00;1.00
13074;DHT22;6603;47.066;15.396;2023-05-19T10:20:15;18.10;1.00
13074;DHT22;6603;47.066;15.396;2023-05-19T10:22:43;18.10;1.00
13074;DHT22;6603;47.066;15.396;2023-05-19T10:25:10;18.00;1.00
13074;DHT22;6603;47.066;15.396;2023-05-19T10:28:04;18.00;99.90
13074;DHT22;6603;47.066;15.396;2023-05-19T10:30:38;17.70;1.00
13074;DHT22;6603;47.066;15.396;2023-05-19T10:33:08;17.80;99.90
13074;DHT22;6603;47.066;15.396;2023-05-19T10:38:45;17.90;1.00
13074;DHT22;6603;47.066;15.396;2023-05-19T10:41:15;18.60;1.00
13074;DHT22;6603;47.066;15.396;2023-05-19T10:44:02;18.70;1.00
13074;DHT22;6603;47.066;15.396;2023-05-19T10:46:33;18.70;1.00
13074;DHT22;6603;47.066;15.396;2023-05-19T10:48:59;18.40;1.00
13074;DHT22;6603;47.066;15.396;2023-05-19T10:51:30;18.10;1.00
13074;DHT22;6603;47.066;15.396;2023-05-19T10:53:56;18.20;1.00
13074;DHT22;6603;47.066;15.396;2023-05-19T10:56:30;18.20;74.10
13074;DHT22;6603;47.066;15.396;2023-05-19T10:58:59;18.00;99.90
13074;DHT22;6603;47.066;15.396;2023-05-19T11:01:33;18.20;99.90
13074;DHT22;6603;47.066;15.396;2023-05-19T11:04:09;18.10;1.00
13074;DHT22;6603;47.066;15.396;2023-05-19T11:06:40;18.00;1.00
13074;DHT22;6603;47.066;15.396;2023-05-19T11:09:17;17.40;1.00
13074;DHT22;6603;47.066;15.396;2023-05-19T11:11:51;17.70;99.90
13074;DHT22;6603;47.066;15.396;2023-05-19T11:14:22;17.80;1.00
13074;DHT22;6603;47.066;15.396;2023-05-19T11:16:52;17.70;1.00
13074;DHT22;6603;47.066;15.396;2023-05-19T11:21:48;18.80;1.00
13074;DHT22;6603;47.066;15.396;2023-05-19T11:24:54;19.10;1.00
13074;DHT22;6603;47.066;15.396;2023-05-19T11:27:38;19.10;99.90
13074;DHT22;6603;47.066;15.396;2023-05-19T11:32:35;18.70;1.00
13074;DHT22;6603;47.066;15.396;2023-05-19T11:35:04;18.40;1.00
13074;DHT22;6603;47.066;15.396;2023-05-19T11:37:33;18.40;1.00
13074;DHT22;6603;47.066;15.396;2023-05-19T11:40:04;18.50;1.00
13074;DHT22;6603;47.066;15.396;2023-05-19T11:42:34;18.60;1.00
13074;DHT22;6603;47.066;15.396;2023-05-19T11:45:00;18.70;1.00
13074;DHT22;6603;47.066;15.396;2023-05-19T11:47:26;18.90;1.00
13074;DHT22;6603;47.066;15.396;2023-05-19T11:49:54;19.30;99.90
13074;DHT22;6603;47.066;15.396;2023-05-19T11:52:24;19.60;99.90
13074;DHT22;6603;47.066;15.396;2023-05-19T11:54:50;20.00;99.90
13074;DHT22;6603;47.066;15.396;2023-05-19T11:57:17;19.90;94.40
13074;DHT22;6603;47.066;15.396;2023-05-19T11:59:42;19.00;33.70
13074;DHT22;6603;47.066;15.396;2023-05-19T12:04:42;19.70;99.90
13074;DHT22;6603;47.066;15.396;2023-05-19T12:07:09;20.00;99.90
13074;DHT22;6603;47.066;15.396;2023-05-19T12:09:36;20.60;99.90
13074;DHT22;6603;47.066;15.396;2023-05-19T12:12:02;20.80;99.90
13074;DHT22;6603;47.066;15.396;2023-05-19T12:14:29;20.80;99.90
13074;DHT22;6603;47.066;15.396;2023-05-19T12:16:56;20.70;99.90
13074;DHT22;6603;47.066;15.396;2023-05-19T12:19:25;20.80;86.30
13074;DHT22;6603;47.066;15.396;2023-05-19T12:21:52;20.70;99.90
13074;DHT22;6603;47.066;15.396;2023-05-19T12:24:19;20.50;1.00
13074;DHT22;6603;47.066;15.396;2023-05-19T12:26:46;20.40;90.10
13074;DHT22;6603;47.066;15.396;2023-05-19T12:29:14;20.20;1.00
13074;DHT22;6603;47.066;15.396;2023-05-19T12:31:41;20.10;84.50
13074;DHT22;6603;47.066;15.396;2023-05-19T12:34:06;20.10;3.70
13074;DHT22;6603;47.066;15.396;2023-05-19T12:36:33;20.00;90.80
13074;DHT22;6603;47.066;15.396;2023-05-19T12:39:00;20.30;78.20
13074;DHT22;6603;47.066;15.396;2023-05-19T12:41:27;20.50;21.50
13074;DHT22;6603;47.066;15.396;2023-05-19T12:43:54;20.30;1.00
13074;DHT22;6603;47.066;15.396;2023-05-19T12:46:20;20.30;1.00
13074;DHT22;6603;47.066;15.396;2023-05-19T12:48:47;20.40;42.60
13074;DHT22;6603;47.066;15.396;2023-05-19T12:51:17;20.40;89.80
13074;DHT22;6603;47.066;15.396;2023-05-19T12:53:43;20.30;82.80
13074;DHT22;6603;47.066;15.396;2023-05-19T12:56:15;20.10;99.90
13074;DHT22;6603;47.066;15.396;2023-05-19T12:58:42;20.10;99.90
13074;DHT22;6603;47.066;15.396;2023-05-19T13:01:16;20.10;99.90
13074;DHT22;6603;47.066;15.396;2023-05-19T13:03:42;20.10;99.90
13074;DHT22;6603;47.066;15.396;2023-05-19T13:06:09;20.20;99.90
13074;DHT22;6603;47.066;15.396;2023-05-19T13:08:36;20.00;99.90
13074;DHT22;6603;47.066;15.396;2023-05-19T13:11:03;20.00;99.90
13074;DHT22;6603;47.066;15.396;2023-05-19T13:13:28;20.00;54.70
13074;DHT22;6603;47.066;15.396;2023-05-19T13:15:54;20.30;99.90
13074;DHT22;6603;47.066;15.396;2023-05-19T13:18:21;20.30;99.90
13074;DHT22;6603;47.066;15.396;2023-05-19T13:20:47;20.30;99.90
13074;DHT22;6603;47.066;15.396;2023-05-19T13:23:15;20.40;99.90
13074;DHT22;6603;47.066;15.396;2023-05-19T13:25:42;20.40;99.90
13074;DHT22;6603;47.066;15.396;2023-05-19T13:28:08;20.40;99.90
13074;DHT22;6603;47.066;15.396;2023-05-19T13:30:36;20.70;99.90
13074;DHT22;6603;47.066;15.396;2023-05-19T13:33:03;20.60;80.10
13074;DHT22;6603;47.066;15.396;2023-05-19T13:35:30;20.50;94.60
13074;DHT22;6603;47.066;15.396;2023-05-19T13:38:05;20.70;1.00
13074;DHT22;6603;47.066;15.396;2023-05-19T13:40:33;20.90;42.70
13074;DHT22;6603;47.066;15.396;2023-05-19T13:43:00;20.70;99.90
13074;DHT22;6603;47.066;15.396;2023-05-19T13:45:26;20.80;99.90
13074;DHT22;6603;47.066;15.396;2023-05-19T13:47:52;20.60;47.80
13074;DHT22;6603;47.066;15.396;2023-05-19T13:50:18;20.30;38.80
13074;DHT22;6603;47.066;15.396;2023-05-19T13:52:44;20.40;1.00
13074;DHT22;6603;47.066;15.396;2023-05-19T13:55:10;21.00;1.00
13074;DHT22;6603;47.066;15.396;2023-05-19T13:57:35;21.40;1.00
13074;DHT22;6603;47.066;15.396;2023-05-19T14:00:03;21.10;1.00
13074;DHT22;6603;47.066;15.396;2023-05-19T14:02:30;21.00;99.90
13074;DHT22;6603;47.066;15.396;2023-05-19T14:04:56;21.20;39.40
13074;DHT22;6603;47.066;15.396;2023-05-19T14:07:22;21.30;90.70
13074;DHT22;6603;47.066;15.396;2023-05-19T14:09:48;22.20;65.20
13074;DHT22;6603;47.066;15.396;2023-05-19T14:12:15;22.40;1.00
13074;DHT22;6603;47.066;15.396;2023-05-19T14:14:41;21.80;1.00
13074;DHT22;6603;47.066;15.396;2023-05-19T14:17:07;21.60;1.00
13074;DHT22;6603;47.066;15.396;2023-05-19T14:19:33;21.60;1.00
13074;DHT22;6603;47.066;15.396;2023-05-19T14:21:59;21.50;1.00
13074;DHT22;6603;47.066;15.396;2023-05-19T14:24:25;21.30;4.70
13074;DHT22;6603;47.066;15.396;2023-05-19T14:26:50;21.10;1.00
13074;DHT22;6603;47.066;15.396;2023-05-19T14:29:17;20.80;1.00
13074;DHT22;6603;47.066;15.396;2023-05-19T14:31:43;20.60;1.00
13074;DHT22;6603;47.066;15.396;2023-05-19T14:34:09;20.40;52.40
13074;DHT22;6603;47.066;15.396;2023-05-19T14:36:34;20.20;78.90
13074;DHT22;6603;47.066;15.396;2023-05-19T14:39:01;20.20;99.90
13074;DHT22;6603;47.066;15.396;2023-05-19T14:41:26;20.00;99.90
13074;DHT22;6603;47.066;15.396;2023-05-19T14:43:52;19.60;99.90
13074;DHT22;6603;47.066;15.396;2023-05-19T14:46:18;19.30;99.90
13074;DHT22;6603;47.066;15.396;2023-05-19T14:48:44;18.90;1.00
13074;DHT22;6603;47.066;15.396;2023-05-19T14:51:09;18.90;1.00
13074;DHT22;6603;47.066;15.396;2023-05-19T14:53:35;18.80;1.00
13074;DHT22;6603;47.066;15.396;2023-05-19T14:56:01;18.70;1.00
13074;DHT22;6603;47.066;15.396;2023-05-19T14:58:26;18.70;1.00
13074;DHT22;6603;47.066;15.396;2023-05-19T15:00:52;18.60;1.00
13074;DHT22;6603;47.066;15.396;2023-05-19T15:03:18;18.60;1.00
13074;DHT22;6603;47.066;15.396;2023-05-19T15:05:44;18.50;1.00
13074;DHT22;6603;47.066;15.396;2023-05-19T15:08:10;18.20;1.00
13074;DHT22;6603;47.066;15.396;2023-05-19T15:10:36;18.30;1.00
13074;DHT22;6603;47.066;15.396;2023-05-19T15:13:02;18.20;1.00
13074;DHT22;6603;47.066;15.396;2023-05-19T15:15:29;18.30;1.00
13074;DHT22;6603;47.066;15.396;2023-05-19T15:17:55;18.00;1.00
13074;DHT22;6603;47.066;15.396;2023-05-19T15:20:21;18.10;99.90
13074;DHT22;6603;47.066;15.396;2023-05-19T15:22:47;18.20;1.00
13074;DHT22;6603;47.066;15.396;2023-05-19T15:25:13;18.30;73.10
13074;DHT22;6603;47.066;15.396;2023-05-19T15:27:39;18.50;1.00
13074;DHT22;6603;47.066;15.396;2023-05-19T15:30:05;18.30;99.90
13074;DHT22;6603;47.066;15.396;2023-05-19T15:32:31;18.40;99.90
13074;DHT22;6603;47.066;15.396;2023-05-19T15:34:57;18.20;1.00
13074;DHT22;6603;47.066;15.396;2023-05-19T15:37:23;18.20;99.90
13074;DHT22;6603;47.066;15.396;2023-05-19T15:39:48;18.30;99.90
13074;DHT22;6603;47.066;15.396;2023-05-19T15:42:14;18.30;1.00
13074;DHT22;6603;47.066;15.396;2023-05-19T15:44:40;18.20;99.90
13074;DHT22;6603;47.066;15.396;2023-05-19T15:47:06;18.20;94.80
13074;DHT22;6603;47.066;15.396;2023-05-19T15:49:32;18.20;1.00
13074;DHT22;6603;47.066;15.396;2023-05-19T15:51:57;18.30;1.00
13074;DHT22;6603;47.066;15.396;2023-05-19T15:54:23;18.30;99.90
13074;DHT22;6603;47.066;15.396;2023-05-19T15:56:50;18.30;99.90
13074;DHT22;6603;47.066;15.396;2023-05-19T15:59:16;18.20;99.90
13074;DHT22;6603;47.066;15.396;2023-05-19T16:01:42;18.10;99.90
13074;DHT22;6603;47.066;15.396;2023-05-19T16:04:08;18.00;99.90